| time (UTC) | temp F | wind direction | speed MPH | gust MPH | rain 1hr in | rain 24hr in | rain mn in | humidity % | barometer mb |
| 20260507081756 | 62 | 333 | 0.0 | 0.0 | 0.00 | 0.00 | 0.00 | 54 | 1011.9 |
| 20260507081252 | 62 | 312 | 0.0 | 0.0 | 0.00 | 0.00 | 0.00 | 55 | 1012.2 |
| 20260507080749 | 63 | 343 | 0.0 | 0.0 | 0.00 | 0.00 | 0.00 | 56 | 1012.1 |
| 20260507080245 | 62 | 22 | 0.0 | 0.0 | 0.00 | 0.00 | 0.00 | 59 | 1012.1 |
| 20260507075741 | 62 | 39 | 0.0 | 0.0 | 0.00 | 0.00 | 0.00 | 61 | 1012.1 |
| 20260507075237 | 61 | 41 | 0.0 | 0.0 | 0.00 | 0.00 | 0.00 | 63 | 1012.0 |
| 20260507074733 | 59 | 41 | 0.0 | 0.0 | 0.00 | 0.00 | 0.00 | 68 | 1011.9 |
| 20260507074232 | 61 | 67 | 0.0 | 0.0 | 0.00 | 0.00 | 0.00 | 68 | 1011.9 |
| 20260507073728 | 63 | 122 | 0.0 | 0.0 | 0.00 | 0.00 | 0.00 | 59 | 1011.7 |
| 20260507073224 | 62 | 329 | 0.0 | 0.0 | 0.00 | 0.00 | 0.00 | 60 | 1011.4 |
| 20260507072723 | 64 | 267 | 0.0 | 0.0 | 0.00 | 0.00 | 0.00 | 61 | 1011.7 |
| 20260507072219 | 64 | 275 | 1.0 | 7.0 | 0.00 | 0.00 | 0.00 | 51 | 1011.6 |
| 20260507071717 | 63 | 314 | 0.0 | 0.0 | 0.00 | 0.00 | 0.00 | 57 | 1011.2 |
| 20260507071213 | 63 | 46 | 0.0 | 0.0 | 0.00 | 0.00 | 0.00 | 61 | 1011.4 |
| 20260507070710 | 62 | 41 | 0.0 | 0.0 | 0.00 | 0.00 | 0.00 | 62 | 1011.4 |
| 20260507070207 | 61 | 44 | 0.0 | 0.0 | 0.00 | 0.00 | 0.00 | 65 | 1011.3 |
| 20260507065703 | 61 | 55 | 0.0 | 0.0 | 0.00 | 0.00 | 0.00 | 68 | 1011.6 |
| 20260507065201 | 61 | 64 | 0.0 | 0.0 | 0.00 | 0.00 | 0.00 | 68 | 1011.2 |
| 20260507064658 | 63 | 65 | 0.0 | 0.0 | 0.00 | 0.00 | 0.00 | 64 | 1011.2 |
| 20260507064156 | 63 | 0 | 0.0 | 0.0 | 0.00 | 0.00 | 0.00 | 61 | 1011.2 |
| 20260507063654 | 63 | 1 | 0.0 | 0.0 | 0.00 | 0.00 | 0.00 | 63 | 1011.3 |
| 20260507063150 | 62 | 37 | 0.0 | 0.0 | 0.00 | 0.00 | 0.00 | 65 | 1011.2 |
| 20260507062647 | 62 | 58 | 0.0 | 0.0 | 0.00 | 0.00 | 0.00 | 66 | 1011.2 |
| 20260507062145 | 64 | 11 | 0.0 | 0.0 | 0.00 | 0.00 | 0.00 | 63 | 1011.2 |
| 20260507061642 | 64 | 63 | 0.0 | 0.0 | 0.00 | 0.00 | 0.00 | 61 | 1011.2 |
| 20260507061140 | 63 | 55 | 0.0 | 0.0 | 0.00 | 0.00 | 0.00 | 65 | 1011.0 |
| 20260507060638 | 64 | 55 | 0.0 | 0.0 | 0.00 | 0.00 | 0.00 | 62 | 1011.0 |
| 20260507060134 | 64 | 56 | 0.0 | 0.0 | 0.00 | 0.00 | 0.00 | 61 | 1011.1 |
| 20260507055630 | 64 | 66 | 0.0 | 0.0 | 0.00 | 0.00 | 0.00 | 63 | 1011.0 |
| 20260507055126 | 65 | 59 | 0.0 | 0.0 | 0.00 | 0.00 | 0.00 | 60 | 1011.0 |
| 20260507054622 | 64 | 44 | 0.0 | 0.0 | 0.00 | 0.00 | 0.00 | 61 | 1011.0 |
| 20260507054119 | 65 | 95 | 0.0 | 0.0 | 0.00 | 0.00 | 0.00 | 60 | 1010.9 |
| 20260507053617 | 66 | 60 | 0.0 | 0.0 | 0.00 | 0.00 | 0.00 | 59 | 1010.9 |
| 20260507053115 | 66 | 51 | 0.0 | 0.0 | 0.00 | 0.00 | 0.00 | 58 | 1010.9 |
| 20260507052613 | 65 | 50 | 0.0 | 0.0 | 0.00 | 0.00 | 0.00 | 59 | 1010.9 |
| 20260507052109 | 65 | 57 | 0.0 | 0.0 | 0.00 | 0.00 | 0.00 | 59 | 1011.0 |
| 20260507051607 | 66 | 57 | 0.0 | 0.0 | 0.00 | 0.00 | 0.00 | 58 | 1011.1 |
| 20260507051103 | 66 | 47 | 0.0 | 0.0 | 0.00 | 0.00 | 0.00 | 57 | 1011.0 |
| 20260507050600 | 66 | 59 | 0.0 | 0.0 | 0.00 | 0.00 | 0.00 | 59 | 1010.8 |
| 20260507050057 | 65 | 58 | 0.0 | 0.0 | 0.00 | 0.00 | 0.00 | 60 | 1011.0 |
| 20260507045554 | 66 | 59 | 0.0 | 0.0 | 0.00 | 0.00 | 0.00 | 60 | 1010.9 |
| 20260507045051 | 67 | 91 | 0.0 | 0.0 | 0.00 | 0.00 | 0.00 | 57 | 1010.9 |
| 20260507044547 | 67 | 350 | 0.0 | 0.0 | 0.00 | 0.00 | 0.00 | 54 | 1010.9 |
| 20260507044044 | 67 | 4 | 0.0 | 0.0 | 0.00 | 0.00 | 0.00 | 55 | 1010.8 |
| 20260507043540 | 66 | 48 | 0.0 | 0.0 | 0.00 | 0.00 | 0.00 | 56 | 1010.9 |
| 20260507043038 | 67 | 33 | 0.0 | 0.0 | 0.00 | 0.00 | 0.00 | 58 | 1010.7 |
| 20260507042533 | 68 | 306 | 0.0 | 0.0 | 0.00 | 0.00 | 0.00 | 53 | 1010.8 |
| 20260507042029 | 68 | 328 | 0.0 | 0.0 | 0.00 | 0.00 | 0.00 | 54 | 1010.9 |
| 20260507041526 | 68 | 305 | 0.0 | 0.0 | 0.00 | 0.00 | 0.00 | 52 | 1010.9 |
| 20260507041023 | 68 | 8 | 0.0 | 0.0 | 0.00 | 0.00 | 0.00 | 53 | 1010.7 |
| 20260507040519 | 68 | 4 | 0.0 | 0.0 | 0.00 | 0.00 | 0.00 | 54 | 1010.7 |
| 20260507040015 | 68 | 332 | 0.0 | 0.0 | 0.00 | 0.00 | 0.00 | 53 | 1010.5 |
| 20260507035512 | 68 | 34 | 0.0 | 0.0 | 0.00 | 0.00 | 0.00 | 52 | 1010.7 |
| 20260507035008 | 69 | 60 | 0.0 | 0.0 | 0.00 | 0.00 | 0.00 | 53 | 1010.3 |
| 20260507034505 | 69 | 10 | 0.0 | 0.0 | 0.00 | 0.00 | 0.00 | 51 | 1010.4 |
| 20260507034003 | 69 | 6 | 0.0 | 0.0 | 0.00 | 0.00 | 0.00 | 51 | 1010.4 |
| 20260507033501 | 69 | 28 | 0.0 | 0.0 | 0.00 | 0.00 | 0.00 | 50 | 1010.2 |
| 20260507032958 | 70 | 346 | 0.0 | 0.0 | 0.00 | 0.00 | 0.00 | 50 | 1010.4 |
| 20260507032455 | 70 | 6 | 0.0 | 0.0 | 0.00 | 0.00 | 0.00 | 48 | 1010.3 |
| 20260507031951 | 70 | 346 | 0.0 | 0.0 | 0.00 | 0.00 | 0.00 | 49 | 1010.2 |
| 20260507031448 | 70 | 13 | 0.0 | 0.0 | 0.00 | 0.00 | 0.00 | 49 | 1010.2 |
| 20260507030944 | 69 | 3 | 0.0 | 0.0 | 0.00 | 0.00 | 0.00 | 51 | 1010.2 |
| 20260507030441 | 69 | 3 | 0.0 | 0.0 | 0.00 | 0.00 | 0.00 | 51 | 1010.4 |
| 20260507025938 | 71 | 12 | 0.0 | 0.0 | 0.00 | 0.00 | 0.00 | 50 | 1010.2 |
| 20260507025436 | 70 | 7 | 0.0 | 0.0 | 0.00 | 0.00 | 0.00 | 50 | 1010.2 |
| 20260507024933 | 70 | 330 | 0.0 | 0.0 | 0.00 | 0.00 | 0.00 | 49 | 1010.2 |
| 20260507024431 | 69 | 304 | 0.0 | 0.0 | 0.00 | 0.00 | 0.00 | 50 | 1010.2 |
| 20260507023926 | 70 | 336 | 0.0 | 0.0 | 0.00 | 0.00 | 0.00 | 53 | 1010.1 |
| 20260507023423 | 71 | 299 | 0.0 | 0.0 | 0.00 | 0.00 | 0.00 | 50 | 1010.3 |
| 20260507022920 | 71 | 307 | 1.0 | 2.0 | 0.00 | 0.00 | 0.00 | 48 | 1010.2 |
| 20260507022417 | 73 | 321 | 0.0 | 8.0 | 0.00 | 0.00 | 0.00 | 47 | 1010.1 |
| 20260507021913 | 73 | 314 | 1.0 | 6.0 | 0.00 | 0.00 | 0.00 | 46 | 1010.1 |
| 20260507021408 | 74 | 313 | 1.0 | 10.0 | 0.00 | 0.00 | 0.00 | 45 | 1010.4 |
| 20260507020906 | 73 | 306 | 5.0 | 11.0 | 0.00 | 0.00 | 0.00 | 44 | 1010.4 |
| 20260507020403 | 73 | 306 | 5.0 | 9.0 | 0.00 | 0.00 | 0.00 | 46 | 1010.5 |
| 20260507015900 | 73 | 269 | 4.0 | 7.0 | 0.00 | 0.00 | 0.00 | 46 | 1010.2 |
| 20260507015358 | 73 | 302 | 0.0 | 2.0 | 0.00 | 0.00 | 0.00 | 48 | 1010.2 |
| 20260507014855 | 73 | 288 | 1.0 | 5.0 | 0.00 | 0.00 | 0.00 | 47 | 1010.2 |
| 20260507014351 | 73 | 287 | 4.0 | 8.0 | 0.00 | 0.00 | 0.00 | 48 | 1010.4 |
| 20260507013847 | 73 | 283 | 0.0 | 1.0 | 0.00 | 0.00 | 0.00 | 50 | 1010.4 |
| 20260507013345 | 73 | 288 | 3.0 | 7.0 | 0.00 | 0.00 | 0.00 | 48 | 1010.2 |
| 20260507012842 | 73 | 284 | 8.0 | 10.0 | 0.00 | 0.00 | 0.00 | 47 | 1010.2 |
| 20260507012337 | 74 | 299 | 2.0 | 8.0 | 0.00 | 0.00 | 0.00 | 47 | 1010.3 |
| 20260507011835 | 74 | 294 | 3.0 | 6.0 | 0.00 | 0.00 | 0.00 | 45 | 1010.2 |
| 20260507011332 | 74 | 318 | 7.0 | 10.0 | 0.00 | 0.00 | 0.00 | 45 | 1010.2 |
| 20260507010826 | 74 | 316 | 7.0 | 9.0 | 0.00 | 0.00 | 0.00 | 46 | 1010.3 |
| 20260507010322 | 75 | 301 | 5.0 | 9.0 | 0.00 | 0.00 | 0.00 | 45 | 1010.3 |
| 20260507005819 | 75 | 287 | 2.0 | 7.0 | 0.00 | 0.00 | 0.00 | 46 | 1010.3 |
| 20260507005316 | 75 | 289 | 6.0 | 9.0 | 0.00 | 0.00 | 0.00 | 46 | 1010.2 |
| 20260507004812 | 75 | 278 | 1.0 | 6.0 | 0.00 | 0.00 | 0.00 | 47 | 1010.2 |
| 20260507004310 | 76 | 218 | 1.0 | 6.0 | 0.00 | 0.00 | 0.00 | 45 | 1010.0 |
| 20260507003801 | 76 | 302 | 6.0 | 10.0 | 0.00 | 0.00 | 0.00 | 44 | 1010.3 |
| 20260507003256 | 76 | 290 | 7.0 | 11.0 | 0.00 | 0.00 | 0.00 | 43 | 1010.0 |
| 20260507002752 | 76 | 302 | 9.0 | 14.0 | 0.00 | 0.00 | 0.00 | 41 | 1010.4 |
| 20260507002248 | 76 | 286 | 9.0 | 13.0 | 0.00 | 0.00 | 0.00 | 43 | 1010.4 |
| 20260507001745 | 77 | 295 | 3.0 | 13.0 | 0.00 | 0.00 | 0.00 | 46 | 1010.2 |
| 20260507001243 | 77 | 288 | 5.0 | 9.0 | 0.00 | 0.00 | 0.00 | 44 | 1010.4 |
| 20260507000739 | 76 | 298 | 7.0 | 13.0 | 0.00 | 0.00 | 0.00 | 45 | 1010.1 |
| 20260507000235 | 76 | 257 | 6.0 | 11.0 | 0.00 | 0.00 | 0.00 | 45 | 1010.1 |
| 20260506235731 | 77 | 291 | 5.0 | 13.0 | 0.00 | 0.00 | 0.00 | 42 | 1009.9 |
| 20260506235227 | 77 | 297 | 10.0 | 14.0 | 0.00 | 0.00 | 0.00 | 41 | 1010.0 |
| 20260506234724 | 77 | 296 | 4.0 | 11.0 | 0.00 | 0.00 | 0.00 | 45 | 1009.9 |
| 20260506234221 | 77 | 288 | 10.0 | 13.0 | 0.00 | 0.00 | 0.00 | 42 | 1010.2 |
| 20260506233719 | 77 | 218 | 8.0 | 16.0 | 0.00 | 0.00 | 0.00 | 44 | 1010.0 |
| 20260506233215 | 78 | 306 | 12.0 | 20.0 | 0.00 | 0.00 | 0.00 | 40 | 1010.1 |
| 20260506232711 | 78 | 295 | 9.0 | 16.0 | 0.00 | 0.00 | 0.00 | 40 | 1010.2 |
| 20260506232206 | 78 | 279 | 9.0 | 16.0 | 0.00 | 0.00 | 0.00 | 40 | 1010.2 |
| 20260506231704 | 78 | 261 | 8.0 | 16.0 | 0.00 | 0.00 | 0.00 | 41 | 1009.9 |
| 20260506231203 | 78 | 293 | 15.0 | 18.0 | 0.00 | 0.00 | 0.00 | 40 | 1010.0 |
| 20260506230659 | 79 | 271 | 13.0 | 17.0 | 0.00 | 0.00 | 0.00 | 39 | 1010.0 |
| 20260506230156 | 79 | 254 | 11.0 | 15.0 | 0.00 | 0.00 | 0.00 | 41 | 1010.2 |
| 20260506225652 | 78 | 280 | 12.0 | 16.0 | 0.00 | 0.00 | 0.00 | 39 | 1010.1 |
| 20260506225149 | 78 | 276 | 13.0 | 17.0 | 0.00 | 0.00 | 0.00 | 37 | 1010.2 |
| 20260506224645 | 78 | 291 | 10.0 | 18.0 | 0.00 | 0.00 | 0.00 | 40 | 1010.5 |
| 20260506224142 | 78 | 252 | 7.0 | 16.0 | 0.00 | 0.00 | 0.00 | 43 | 1010.4 |
| 20260506223639 | 78 | 283 | 11.0 | 15.0 | 0.00 | 0.00 | 0.00 | 42 | 1010.4 |
| 20260506223135 | 78 | 274 | 3.0 | 15.0 | 0.00 | 0.00 | 0.00 | 44 | 1010.6 |
| 20260506222632 | 78 | 250 | 9.0 | 21.0 | 0.00 | 0.00 | 0.00 | 41 | 1010.7 |
| 20260506222128 | 79 | 238 | 9.0 | 10.0 | 0.00 | 0.00 | 0.00 | 41 | 1010.7 |
| 20260506221626 | 78 | 189 | 1.0 | 9.0 | 0.00 | 0.00 | 0.00 | 43 | 1011.0 |
| 20260506221124 | 79 | 282 | 0.0 | 1.0 | 0.00 | 0.00 | 0.00 | 41 | 1010.9 |
| 20260506220620 | 79 | 225 | 1.0 | 8.0 | 0.00 | 0.00 | 0.00 | 43 | 1011.0 |
| 20260506220115 | 78 | 229 | 0.0 | 3.0 | 0.00 | 0.00 | 0.00 | 47 | 1011.2 |
| 20260506215612 | 78 | 262 | 5.0 | 8.0 | 0.00 | 0.00 | 0.00 | 42 | 1011.4 |
| 20260506215107 | 79 | 222 | 0.0 | 3.0 | 0.00 | 0.00 | 0.00 | 43 | 1011.0 |
| 20260506214605 | 79 | 241 | 0.0 | 3.0 | 0.00 | 0.00 | 0.00 | 45 | 1011.3 |
| 20260506214102 | 79 | 283 | 0.0 | 8.0 | 0.00 | 0.00 | 0.00 | 45 | 1011.3 |
| 20260506213600 | 78 | 306 | 1.0 | 8.0 | 0.00 | 0.00 | 0.00 | 42 | 1011.6 |
| 20260506213057 | 79 | 248 | 6.0 | 10.0 | 0.00 | 0.00 | 0.00 | 43 | 1011.4 |
| 20260506212554 | 78 | 220 | 1.0 | 8.0 | 0.00 | 0.00 | 0.00 | 44 | 1011.8 |
| 20260506212048 | 78 | 223 | 0.0 | 3.0 | 0.00 | 0.00 | 0.00 | 46 | 1011.6 |
| 20260506211545 | 78 | 223 | 0.0 | 2.0 | 0.00 | 0.00 | 0.00 | 45 | 1011.6 |
| 20260506211042 | 77 | 265 | 0.0 | 2.0 | 0.00 | 0.00 | 0.00 | 42 | 1011.8 |
| 20260506210539 | 77 | 226 | 0.0 | 1.0 | 0.00 | 0.00 | 0.00 | 44 | 1012.0 |
| 20260506210035 | 76 | 284 | 0.0 | 0.0 | 0.00 | 0.00 | 0.00 | 46 | 1011.7 |
| 20260506205532 | 77 | 264 | 0.0 | 1.0 | 0.00 | 0.00 | 0.00 | 43 | 1011.8 |
| 20260506205027 | 77 | 194 | 0.0 | 0.0 | 0.00 | 0.00 | 0.00 | 42 | 1012.1 |
| 20260506204525 | 78 | 200 | 4.0 | 6.0 | 0.00 | 0.00 | 0.00 | 44 | 1012.0 |
| 20260506204022 | 76 | 134 | 0.0 | 1.0 | 0.00 | 0.00 | 0.00 | 45 | 1012.0 |
| 20260506203520 | 77 | 206 | 1.0 | 7.0 | 0.00 | 0.00 | 0.00 | 44 | 1012.2 |
| 20260506203016 | 76 | 184 | 1.0 | 6.0 | 0.00 | 0.00 | 0.00 | 44 | 1012.1 |
| 20260506202514 | 76 | 229 | 2.0 | 5.0 | 0.00 | 0.00 | 0.00 | 47 | 1012.3 |
| 20260506202010 | 76 | 236 | 1.0 | 2.0 | 0.00 | 0.00 | 0.00 | 44 | 1012.4 |
| 20260506201508 | 76 | 258 | 0.0 | 1.0 | 0.00 | 0.00 | 0.00 | 43 | 1012.4 |
| 20260506201004 | 76 | 209 | 1.0 | 2.0 | 0.00 | 0.00 | 0.00 | 48 | 1012.5 |
| 20260506200501 | 75 | 255 | 0.0 | 8.0 | 0.00 | 0.00 | 0.00 | 43 | 1012.3 |
| 20260506195956 | 75 | 290 | 0.0 | 1.0 | 0.00 | 0.00 | 0.00 | 43 | 1012.1 |
| 20260506195455 | 74 | 231 | 0.0 | 3.0 | 0.00 | 0.00 | 0.00 | 42 | 1012.4 |
| 20260506194950 | 74 | 283 | 0.0 | 5.0 | 0.00 | 0.00 | 0.00 | 42 | 1012.4 |
| 20260506194448 | 75 | 276 | 0.0 | 5.0 | 0.00 | 0.00 | 0.00 | 41 | 1012.6 |
| 20260506193945 | 74 | 298 | 0.0 | 5.0 | 0.00 | 0.00 | 0.00 | 44 | 1012.6 |
| 20260506193442 | 75 | 277 | 0.0 | 7.0 | 0.00 | 0.00 | 0.00 | 49 | 1012.7 |
| 20260506192938 | 74 | 231 | 2.0 | 5.0 | 0.00 | 0.00 | 0.00 | 42 | 1012.9 |
| 20260506192436 | 74 | 248 | 0.0 | 1.0 | 0.00 | 0.00 | 0.00 | 42 | 1012.8 |
| 20260506191932 | 74 | 198 | 0.0 | 0.0 | 0.00 | 0.00 | 0.00 | 43 | 1012.9 |
| 20260506191429 | 73 | 258 | 1.0 | 2.0 | 0.00 | 0.00 | 0.00 | 44 | 1013.1 |
| 20260506190925 | 73 | 281 | 0.0 | 0.0 | 0.00 | 0.00 | 0.00 | 44 | 1013.1 |
| 20260506190422 | 73 | 281 | 0.0 | 0.0 | 0.00 | 0.00 | 0.00 | 43 | 1013.2 |
| 20260506185919 | 73 | 218 | 0.0 | 5.0 | 0.00 | 0.00 | 0.00 | 43 | 1012.9 |
| 20260506185416 | 74 | 173 | 0.0 | 0.0 | 0.00 | 0.00 | 0.00 | 42 | 1013.1 |
| 20260506184913 | 74 | 178 | 0.0 | 0.0 | 0.00 | 0.00 | 0.00 | 45 | 1013.2 |
| 20260506184410 | 73 | 10 | 0.0 | 0.0 | 0.00 | 0.00 | 0.00 | 39 | 1013.4 |
| 20260506183908 | 73 | 44 | 0.0 | 0.0 | 0.00 | 0.00 | 0.00 | 46 | 1013.4 |
| 20260506183403 | 73 | 197 | 0.0 | 0.0 | 0.00 | 0.00 | 0.00 | 41 | 1013.5 |
| 20260506182900 | 73 | 72 | 0.0 | 0.0 | 0.00 | 0.00 | 0.00 | 51 | 1013.4 |
| 20260506182357 | 73 | 166 | 0.0 | 1.0 | 0.00 | 0.00 | 0.00 | 44 | 1013.3 |
| 20260506181854 | 72 | 130 | 1.0 | 2.0 | 0.00 | 0.00 | 0.00 | 46 | 1013.4 |
| 20260506181352 | 72 | 64 | 0.0 | 5.0 | 0.00 | 0.00 | 0.00 | 46 | 1013.5 |
| 20260506180849 | 71 | 81 | 0.0 | 1.0 | 0.00 | 0.00 | 0.00 | 51 | 1013.4 |
| 20260506180345 | 70 | 117 | 1.0 | 2.0 | 0.00 | 0.00 | 0.00 | 46 | 1013.3 |
| 20260506175842 | 70 | 131 | 0.0 | 0.0 | 0.00 | 0.00 | 0.00 | 48 | 1013.7 |
| 20260506175339 | 69 | 73 | 0.0 | 0.0 | 0.00 | 0.00 | 0.00 | 49 | 1013.5 |
| 20260506174836 | 70 | 85 | 0.0 | 7.0 | 0.00 | 0.00 | 0.00 | 47 | 1013.7 |
| 20260506174333 | 69 | 81 | 0.0 | 1.0 | 0.00 | 0.00 | 0.00 | 48 | 1013.5 |
| 20260506173831 | 68 | 125 | 0.0 | 3.0 | 0.00 | 0.00 | 0.00 | 50 | 1013.5 |
| 20260506173327 | 68 | 114 | 3.0 | 7.0 | 0.00 | 0.00 | 0.00 | 47 | 1013.7 |
| 20260506172824 | 67 | 61 | 3.0 | 7.0 | 0.00 | 0.00 | 0.00 | 46 | 1013.6 |
| 20260506172321 | 67 | 82 | 0.0 | 1.0 | 0.00 | 0.00 | 0.00 | 49 | 1013.7 |
| 20260506171818 | 67 | 108 | 0.0 | 5.0 | 0.00 | 0.00 | 0.00 | 48 | 1013.6 |
| 20260506171315 | 67 | 108 | 1.0 | 5.0 | 0.00 | 0.00 | 0.00 | 48 | 1014.0 |
| 20260506170813 | 67 | 119 | 2.0 | 5.0 | 0.00 | 0.00 | 0.00 | 49 | 1013.6 |
| 20260506170309 | 66 | 78 | 0.0 | 2.0 | 0.00 | 0.00 | 0.00 | 50 | 1013.7 |
| 20260506165808 | 66 | 140 | 0.0 | 2.0 | 0.00 | 0.00 | 0.00 | 50 | 1013.7 |
| 20260506165306 | 65 | 140 | 0.0 | 7.0 | 0.00 | 0.00 | 0.00 | 50 | 1014.0 |
| 20260506164802 | 65 | 65 | 0.0 | 0.0 | 0.00 | 0.00 | 0.00 | 52 | 1013.7 |
| 20260506164258 | 64 | 142 | 0.0 | 3.0 | 0.00 | 0.00 | 0.00 | 50 | 1013.8 |
| 20260506163755 | 64 | 67 | 2.0 | 7.0 | 0.00 | 0.00 | 0.00 | 50 | 1014.0 |
| 20260506163250 | 63 | 96 | 2.0 | 7.0 | 0.00 | 0.00 | 0.00 | 50 | 1014.2 |
| 20260506162746 | 62 | 75 | 1.0 | 8.0 | 0.00 | 0.00 | 0.00 | 49 | 1014.1 |
| 20260506162244 | 62 | 118 | 5.0 | 9.0 | 0.00 | 0.00 | 0.00 | 52 | 1014.1 |
| 20260506161741 | 62 | 88 | 2.0 | 6.0 | 0.00 | 0.00 | 0.00 | 52 | 1014.2 |
| 20260506161239 | 61 | 123 | 1.0 | 7.0 | 0.00 | 0.00 | 0.00 | 54 | 1014.1 |
| 20260506160736 | 61 | 87 | 4.0 | 9.0 | 0.00 | 0.00 | 0.00 | 52 | 1014.3 |
| 20260506160232 | 60 | 70 | 5.0 | 8.0 | 0.00 | 0.00 | 0.00 | 53 | 1014.4 |
| 20260506155731 | 60 | 86 | 3.0 | 8.0 | 0.00 | 0.00 | 0.00 | 54 | 1014.2 |
| 20260506155227 | 59 | 81 | 5.0 | 8.0 | 0.00 | 0.00 | 0.00 | 54 | 1014.4 |
| 20260506153335 | 58 | 91 | 6.0 | 9.0 | 0.00 | 0.00 | 0.00 | 58 | 1014.4 |
| 20260506152832 | 57 | 117 | 6.0 | 10.0 | 0.00 | 0.00 | 0.00 | 59 | 1014.4 |
| 20260506152329 | 57 | 116 | 5.0 | 11.0 | 0.00 | 0.00 | 0.00 | 59 | 1014.5 |
| 20260506151828 | 57 | 90 | 7.0 | 14.0 | 0.00 | 0.00 | 0.00 | 60 | 1014.5 |
| 20260506151324 | 57 | 75 | 3.0 | 10.0 | 0.00 | 0.00 | 0.00 | 61 | 1014.3 |
| 20260506150821 | 56 | 71 | 4.0 | 10.0 | 0.00 | 0.00 | 0.00 | 62 | 1014.2 |
| 20260506150318 | 56 | 92 | 8.0 | 11.0 | 0.00 | 0.00 | 0.00 | 61 | 1014.1 |
| 20260506145815 | 55 | 94 | 7.0 | 10.0 | 0.00 | 0.00 | 0.00 | 63 | 1014.1 |
| 20260506145311 | 55 | 109 | 3.0 | 9.0 | 0.00 | 0.00 | 0.00 | 64 | 1014.3 |
| 20260506144809 | 54 | 94 | 6.0 | 11.0 | 0.00 | 0.00 | 0.00 | 64 | 1014.4 |
| 20260506144305 | 54 | 136 | 7.0 | 10.0 | 0.00 | 0.00 | 0.00 | 65 | 1014.3 |
| 20260506143803 | 53 | 110 | 7.0 | 10.0 | 0.00 | 0.00 | 0.00 | 66 | 1014.5 |
| 20260506143300 | 53 | 104 | 10.0 | 14.0 | 0.00 | 0.00 | 0.00 | 65 | 1014.5 |
| 20260506142759 | 53 | 105 | 8.0 | 10.0 | 0.00 | 0.00 | 0.00 | 68 | 1014.5 |
| 20260506142256 | 52 | 153 | 8.0 | 15.0 | 0.00 | 0.00 | 0.00 | 68 | 1014.5 |
| 20260506141754 | 51 | 140 | 8.0 | 10.0 | 0.00 | 0.00 | 0.00 | 70 | 1014.5 |
| 20260506141252 | 51 | 147 | 7.0 | 9.0 | 0.00 | 0.00 | 0.00 | 70 | 1014.3 |
| 20260506140750 | 51 | 76 | 9.0 | 13.0 | 0.00 | 0.00 | 0.00 | 70 | 1014.3 |
| 20260506140246 | 51 | 117 | 8.0 | 9.0 | 0.00 | 0.00 | 0.00 | 70 | 1014.6 |
| 20260506135743 | 51 | 88 | 6.0 | 13.0 | 0.00 | 0.00 | 0.00 | 70 | 1014.5 |
| 20260506135239 | 51 | 65 | 7.0 | 13.0 | 0.00 | 0.00 | 0.00 | 70 | 1014.3 |
| 20260506134737 | 50 | 97 | 6.0 | 10.0 | 0.00 | 0.00 | 0.00 | 72 | 1014.4 |
| 20260506134233 | 51 | 95 | 9.0 | 11.0 | 0.00 | 0.00 | 0.00 | 71 | 1014.4 |
| 20260506133730 | 51 | 119 | 7.0 | 11.0 | 0.00 | 0.00 | 0.00 | 69 | 1014.4 |
| 20260506133227 | 50 | 75 | 8.0 | 11.0 | 0.00 | 0.00 | 0.00 | 72 | 1014.3 |
| 20260506132724 | 50 | 101 | 7.0 | 10.0 | 0.00 | 0.00 | 0.00 | 71 | 1014.4 |
| 20260506132221 | 49 | 78 | 7.0 | 10.0 | 0.00 | 0.00 | 0.00 | 72 | 1014.3 |
| 20260506131719 | 48 | 77 | 7.0 | 11.0 | 0.00 | 0.00 | 0.00 | 73 | 1014.1 |
| 20260506131214 | 49 | 64 | 6.0 | 10.0 | 0.00 | 0.00 | 0.00 | 73 | 1014.1 |
| 20260506130712 | 49 | 112 | 7.0 | 10.0 | 0.00 | 0.00 | 0.00 | 72 | 1013.8 |
| 20260506130208 | 48 | 66 | 9.0 | 13.0 | 0.00 | 0.00 | 0.00 | 73 | 1014.2 |
| 20260506125707 | 48 | 84 | 8.0 | 11.0 | 0.00 | 0.00 | 0.00 | 73 | 1013.8 |
| 20260506125204 | 48 | 79 | 6.0 | 11.0 | 0.00 | 0.00 | 0.00 | 73 | 1013.8 |
| 20260506124702 | 49 | 69 | 8.0 | 10.0 | 0.00 | 0.00 | 0.00 | 71 | 1013.8 |
| 20260506124200 | 49 | 61 | 9.0 | 14.0 | 0.00 | 0.00 | 0.00 | 70 | 1013.7 |
| 20260506123657 | 50 | 55 | 8.0 | 11.0 | 0.00 | 0.00 | 0.00 | 70 | 1013.7 |
| 20260506123156 | 50 | 129 | 9.0 | 13.0 | 0.00 | 0.00 | 0.00 | 68 | 1013.7 |
| 20260506122652 | 49 | 111 | 6.0 | 10.0 | 0.00 | 0.00 | 0.00 | 71 | 1014.0 |
| 20260506122150 | 48 | 77 | 9.0 | 13.0 | 0.00 | 0.00 | 0.00 | 72 | 1013.8 |
| 20260506121647 | 48 | 94 | 9.0 | 13.0 | 0.00 | 0.00 | 0.00 | 71 | 1013.6 |
| 20260506121143 | 49 | 83 | 9.0 | 14.0 | 0.00 | 0.00 | 0.00 | 71 | 1013.6 |
| 20260506120641 | 49 | 89 | 8.0 | 14.0 | 0.00 | 0.00 | 0.00 | 70 | 1013.5 |
| 20260506120138 | 49 | 72 | 9.0 | 14.0 | 0.00 | 0.00 | 0.00 | 70 | 1013.6 |
| 20260506115637 | 50 | 64 | 9.0 | 15.0 | 0.00 | 0.00 | 0.00 | 70 | 1013.3 |
| 20260506115135 | 50 | 82 | 9.0 | 11.0 | 0.00 | 0.00 | 0.00 | 69 | 1013.5 |
| 20260506114632 | 51 | 103 | 9.0 | 13.0 | 0.00 | 0.00 | 0.00 | 68 | 1013.4 |
| 20260506114130 | 51 | 62 | 7.0 | 13.0 | 0.00 | 0.00 | 0.00 | 68 | 1013.5 |
| 20260506113628 | 50 | 111 | 9.0 | 11.0 | 0.00 | 0.00 | 0.00 | 68 | 1013.3 |
| 20260506113125 | 50 | 75 | 11.0 | 14.0 | 0.00 | 0.00 | 0.00 | 68 | 1013.3 |
| 20260506112621 | 50 | 74 | 9.0 | 14.0 | 0.00 | 0.00 | 0.00 | 68 | 1013.3 |
| 20260506112119 | 50 | 61 | 8.0 | 13.0 | 0.00 | 0.00 | 0.00 | 69 | 1013.4 |
| 20260506111616 | 52 | 71 | 5.0 | 11.0 | 0.00 | 0.00 | 0.00 | 67 | 1013.4 |
| 20260506111114 | 52 | 82 | 7.0 | 11.0 | 0.00 | 0.00 | 0.00 | 65 | 1013.5 |
| 20260506110611 | 52 | 80 | 8.0 | 11.0 | 0.00 | 0.00 | 0.00 | 65 | 1013.4 |
| 20260506110108 | 51 | 104 | 7.0 | 9.0 | 0.00 | 0.00 | 0.00 | 67 | 1013.6 |
| 20260506105604 | 51 | 73 | 5.0 | 9.0 | 0.00 | 0.00 | 0.00 | 68 | 1013.2 |
| 20260506105101 | 51 | 109 | 7.0 | 10.0 | 0.00 | 0.00 | 0.00 | 68 | 1013.4 |
| 20260506104600 | 51 | 87 | 7.0 | 10.0 | 0.00 | 0.00 | 0.00 | 68 | 1013.1 |
| 20260506104057 | 51 | 74 | 7.0 | 9.0 | 0.00 | 0.00 | 0.00 | 69 | 1013.0 |
| 20260506103554 | 51 | 74 | 9.0 | 11.0 | 0.00 | 0.00 | 0.00 | 68 | 1013.1 |
| 20260506103050 | 51 | 86 | 8.0 | 11.0 | 0.00 | 0.00 | 0.00 | 67 | 1013.2 |
| 20260506102549 | 51 | 126 | 6.0 | 10.0 | 0.00 | 0.00 | 0.00 | 67 | 1013.0 |
| 20260506102046 | 50 | 88 | 8.0 | 13.0 | 0.00 | 0.00 | 0.00 | 68 | 1013.2 |
| 20260506101543 | 51 | 72 | 8.0 | 13.0 | 0.00 | 0.00 | 0.00 | 68 | 1013.0 |
| 20260506101040 | 51 | 75 | 10.0 | 15.0 | 0.00 | 0.00 | 0.00 | 67 | 1012.8 |
| 20260506100538 | 51 | 147 | 10.0 | 13.0 | 0.00 | 0.00 | 0.00 | 67 | 1012.8 |
| 20260506100036 | 51 | 71 | 8.0 | 10.0 | 0.00 | 0.00 | 0.00 | 67 | 1012.8 |
| 20260506095534 | 52 | 74 | 8.0 | 11.0 | 0.00 | 0.00 | 0.00 | 65 | 1013.0 |
| 20260506095030 | 52 | 68 | 8.0 | 13.0 | 0.00 | 0.00 | 0.00 | 65 | 1013.0 |
| 20260506094528 | 52 | 72 | 7.0 | 10.0 | 0.00 | 0.00 | 0.00 | 64 | 1013.0 |
| 20260506094026 | 52 | 87 | 10.0 | 11.0 | 0.00 | 0.00 | 0.00 | 65 | 1012.9 |
| 20260506093524 | 53 | 70 | 7.0 | 13.0 | 0.00 | 0.00 | 0.00 | 64 | 1012.9 |
| 20260506093021 | 53 | 101 | 9.0 | 13.0 | 0.00 | 0.00 | 0.00 | 63 | 1012.9 |
| 20260506092519 | 53 | 66 | 9.0 | 13.0 | 0.00 | 0.00 | 0.00 | 62 | 1012.9 |
| 20260506092015 | 53 | 63 | 7.0 | 10.0 | 0.00 | 0.00 | 0.00 | 63 | 1012.8 |
| 20260506091514 | 53 | 111 | 2.0 | 11.0 | 0.00 | 0.00 | 0.00 | 63 | 1012.8 |
| 20260506091011 | 53 | 79 | 6.0 | 10.0 | 0.00 | 0.00 | 0.00 | 64 | 1012.7 |
| 20260506090509 | 54 | 76 | 1.0 | 7.0 | 0.00 | 0.00 | 0.00 | 63 | 1012.8 |
| 20260506090004 | 54 | 86 | 2.0 | 9.0 | 0.00 | 0.00 | 0.00 | 63 | 1012.8 |
| 20260506085502 | 52 | 101 | 1.0 | 6.0 | 0.00 | 0.00 | 0.00 | 65 | 1012.8 |
| 20260506084958 | 50 | 102 | 0.0 | 2.0 | 0.00 | 0.00 | 0.00 | 73 | 1012.8 |
| 20260506084455 | 50 | 67 | 0.0 | 1.0 | 0.00 | 0.00 | 0.00 | 72 | 1013.0 |
| 20260506083951 | 51 | 88 | 0.0 | 0.0 | 0.00 | 0.00 | 0.00 | 70 | 1012.9 |
| 20260506083448 | 51 | 72 | 0.0 | 2.0 | 0.00 | 0.00 | 0.00 | 69 | 1012.8 |
| 20260506082945 | 51 | 92 | 0.0 | 0.0 | 0.00 | 0.00 | 0.00 | 70 | 1012.9 |
| 20260506082442 | 51 | 110 | 0.0 | 2.0 | 0.00 | 0.00 | 0.00 | 72 | 1012.9 |
| 20260506081938 | 51 | 89 | 0.0 | 0.0 | 0.00 | 0.00 | 0.00 | 71 | 1012.9 |